Terminal Aerodrome Forecast
Issued by NWS

Home | Current Version | Previous Version | Text Only | Print | Product List | Glossary On
Versions: 1 2 3 4 5 6 7 8 9 10 11 12 13 14 15 16 17 18 19 20 21 22 23 24 25 26
391
FTUS41 KOKX 130232 AAA
TAFTEB
TAF AMD
KTEB 130232Z 1303/1324 25005KT P6SM BKN060
     FM130700 26008KT P6SM SCT025 BKN040
     FM130900 29014G22KT P6SM SCT040 BKN080
     FM131300 31022G31KT P6SM SCT050=

USA.gov is the U.S. government's official web portal to all federal, state and local government web resources and services.